createdAt,value
2022-12-18T00:01:28.630Z,-6.27
2022-12-18T00:03:58.120Z,-6.28
2022-12-18T00:06:27.618Z,-6.28
2022-12-18T00:08:57.763Z,-6.27
2022-12-18T00:11:29.246Z,-6.27
2022-12-18T00:13:59.269Z,-6.28
2022-12-18T00:16:28.187Z,-6.27
2022-12-18T00:18:58.774Z,-6.29
2022-12-18T00:21:26.541Z,-6.30
2022-12-18T00:23:54.638Z,-6.31
2022-12-18T00:26:25.147Z,-6.27
2022-12-18T00:29:01.100Z,-6.29
2022-12-18T00:31:31.911Z,-6.31
2022-12-18T00:34:01.284Z,-6.32
2022-12-18T00:36:31.131Z,-6.32
2022-12-18T00:39:00.302Z,-6.31
2022-12-18T00:41:46.847Z,-6.32
2022-12-18T00:44:18.248Z,-6.32
2022-12-18T00:46:48.131Z,-6.31
2022-12-18T00:49:16.165Z,-6.35
2022-12-18T00:51:43.993Z,-6.34
2022-12-18T00:54:12.886Z,-6.38
2022-12-18T00:56:48.255Z,-6.36
2022-12-18T00:59:18.743Z,-6.39
2022-12-18T01:01:47.048Z,-6.39
2022-12-18T01:04:15.528Z,-6.41
2022-12-18T01:06:46.698Z,-6.43
2022-12-18T01:09:14.470Z,-6.45
2022-12-18T01:11:42.382Z,-6.46
2022-12-18T01:14:11.919Z,-6.47
2022-12-18T01:16:41.117Z,-6.54
2022-12-18T01:19:09.004Z,-6.57
2022-12-18T01:21:36.787Z,-6.58
2022-12-18T01:24:06.223Z,-6.61
2022-12-18T01:26:34.985Z,-6.63
2022-12-18T01:29:02.692Z,-6.63
2022-12-18T01:31:33.318Z,-6.66
2022-12-18T01:34:06.026Z,-6.67
2022-12-18T01:36:37.522Z,-6.67
2022-12-18T01:39:07.414Z,-6.64
2022-12-18T01:41:50.726Z,-6.64
2022-12-18T01:45:04.255Z,-6.69
2022-12-18T01:47:40.047Z,-6.69
2022-12-18T01:50:13.524Z,-6.71
2022-12-18T01:52:44.686Z,-6.78
2022-12-18T01:55:14.410Z,-6.78
2022-12-18T01:57:43.309Z,-6.80
2022-12-18T02:00:15.864Z,-6.80
2022-12-18T02:02:46.403Z,-6.83
2022-12-18T02:05:18.575Z,-6.84
2022-12-18T02:07:58.242Z,-6.87
2022-12-18T02:10:32.010Z,-6.84
2022-12-18T02:13:13.655Z,-6.85
2022-12-18T02:15:45.942Z,-6.85
2022-12-18T02:18:20.686Z,-6.85
2022-12-18T02:20:56.202Z,-6.86
2022-12-18T02:23:41.932Z,-6.84
2022-12-18T02:26:18.618Z,-6.85
2022-12-18T02:28:50.144Z,-6.97
2022-12-18T02:31:23.283Z,-6.95
2022-12-18T02:33:52.237Z,-6.96
2022-12-18T02:36:23.843Z,-7.00
2022-12-18T02:38:53.865Z,-6.99
2022-12-18T02:41:24.711Z,-7.00
2022-12-18T02:43:58.037Z,-6.96
2022-12-18T02:46:37.020Z,-6.95
2022-12-18T02:49:27.983Z,-6.92
2022-12-18T02:52:03.826Z,-6.88
2022-12-18T02:54:54.412Z,-6.83
2022-12-18T02:57:30.867Z,-6.78
2022-12-18T03:00:07.185Z,-6.77
2022-12-18T03:02:40.051Z,-6.67
2022-12-18T03:05:16.012Z,-6.70
2022-12-18T03:07:49.319Z,-6.66
2022-12-18T03:10:25.790Z,-6.65
2022-12-18T03:12:59.853Z,-6.68
2022-12-18T03:15:31.671Z,-6.69
2022-12-18T03:18:12.864Z,-6.71
2022-12-18T03:20:44.277Z,-6.76
2022-12-18T03:23:17.740Z,-6.75
2022-12-18T03:25:52.383Z,-6.80
2022-12-18T03:28:24.694Z,-6.86
2022-12-18T03:31:03.414Z,-6.90
2022-12-18T03:33:36.914Z,-6.85
2022-12-18T03:36:05.612Z,-6.89
2022-12-18T03:38:34.636Z,-6.90
2022-12-18T03:41:09.150Z,-6.93
2022-12-18T03:43:53.080Z,-6.91
2022-12-18T03:46:30.309Z,-6.93
2022-12-18T03:49:06.338Z,-6.97
2022-12-18T03:51:39.992Z,-6.98
2022-12-18T03:54:10.723Z,-7.02
2022-12-18T03:56:45.685Z,-7.02
2022-12-18T03:59:17.436Z,-7.05
2022-12-18T04:01:49.561Z,-7.08
2022-12-18T04:04:20.748Z,-7.12
2022-12-18T04:06:51.591Z,-7.14
2022-12-18T04:09:21.218Z,-7.14
2022-12-18T04:11:50.478Z,-7.14
2022-12-18T04:14:19.578Z,-7.18
2022-12-18T04:16:51.683Z,-7.12
2022-12-18T04:19:24.078Z,-7.14
2022-12-18T04:21:53.743Z,-7.11
2022-12-18T04:24:21.894Z,-7.10
2022-12-18T04:27:01.326Z,-7.13
2022-12-18T04:29:35.733Z,-7.20
2022-12-18T04:32:03.510Z,-7.25
2022-12-18T04:34:33.037Z,-7.24
2022-12-18T04:37:01.206Z,-7.25
2022-12-18T04:39:29.226Z,-7.19
2022-12-18T04:42:05.733Z,-7.20
2022-12-18T04:44:35.186Z,-7.23
2022-12-18T04:47:03.030Z,-7.20
2022-12-18T04:49:30.740Z,-7.16
2022-12-18T04:51:58.537Z,-7.12
2022-12-18T04:54:26.468Z,-7.11
2022-12-18T04:56:54.256Z,-7.07
2022-12-18T04:59:22.919Z,-7.02
2022-12-18T05:01:52.939Z,-7.03
2022-12-18T05:04:21.753Z,-7.02
2022-12-18T05:06:49.466Z,-7.01
2022-12-18T05:09:17.195Z,-7.06
2022-12-18T05:11:45.307Z,-7.03
2022-12-18T05:14:14.204Z,-7.02
2022-12-18T05:16:41.961Z,-7.01
2022-12-18T05:19:11.479Z,-6.98
2022-12-18T05:21:39.520Z,-6.99
2022-12-18T05:24:07.646Z,-6.98
2022-12-18T05:26:35.352Z,-6.97
2022-12-18T05:29:03.063Z,-6.98
2022-12-18T05:31:35.924Z,-7.01
2022-12-18T05:34:06.841Z,-6.97
2022-12-18T05:36:35.957Z,-6.98
2022-12-18T05:39:03.729Z,-6.98
2022-12-18T05:41:32.284Z,-6.97
2022-12-18T05:44:00.261Z,-6.97
2022-12-18T05:46:28.839Z,-6.96
2022-12-18T05:48:56.985Z,-6.97
2022-12-18T05:51:24.708Z,-6.97
2022-12-18T05:53:53.860Z,-6.99
2022-12-18T05:56:23.676Z,-6.95
2022-12-18T05:58:53.760Z,-6.93
2022-12-18T06:01:24.023Z,-6.89
2022-12-18T06:03:51.853Z,-6.86
2022-12-18T06:06:23.169Z,-6.85
2022-12-18T06:08:52.929Z,-6.83
2022-12-18T06:11:22.927Z,-6.79
2022-12-18T06:13:56.324Z,-6.79
2022-12-18T06:16:26.465Z,-6.75
2022-12-18T06:18:54.291Z,-6.74
2022-12-18T06:21:22.639Z,-6.76
2022-12-18T06:23:50.416Z,-6.76
2022-12-18T06:26:24.641Z,-6.80
2022-12-18T06:28:55.452Z,-6.79
2022-12-18T06:31:23.815Z,-6.79
2022-12-18T06:33:51.698Z,-6.77
2022-12-18T06:36:20.589Z,-6.79
2022-12-18T06:38:48.507Z,-6.76
2022-12-18T06:41:18.269Z,-6.81
2022-12-18T06:43:47.627Z,-6.84
2022-12-18T06:46:15.559Z,-6.84
2022-12-18T06:48:43.623Z,-6.91
2022-12-18T06:51:11.340Z,-6.96
2022-12-18T06:53:40.009Z,-7.02
2022-12-18T06:56:10.892Z,-7.03
2022-12-18T06:58:39.179Z,-7.09
2022-12-18T07:01:10.611Z,-7.17
2022-12-18T07:03:39.656Z,-7.20
2022-12-18T07:06:08.216Z,-7.26
2022-12-18T07:08:36.473Z,-7.29
2022-12-18T07:11:06.502Z,-7.28
2022-12-18T07:13:34.222Z,-7.35
2022-12-18T07:16:15.955Z,-7.36
2022-12-18T07:18:45.420Z,-7.41
2022-12-18T07:21:14.925Z,-7.46
2022-12-18T07:23:42.921Z,-7.41
2022-12-18T07:26:13.118Z,-7.46
2022-12-18T07:28:42.527Z,-7.44
2022-12-18T07:31:13.689Z,-7.45
2022-12-18T07:33:41.970Z,-7.51
2022-12-18T07:36:12.528Z,-7.54
2022-12-18T07:38:41.031Z,-7.40
2022-12-18T07:41:11.734Z,-7.23
2022-12-18T07:43:40.731Z,-7.00
2022-12-18T07:46:13.187Z,-6.94
2022-12-18T07:48:41.615Z,-6.84
2022-12-18T07:51:09.814Z,-6.76
2022-12-18T07:53:38.948Z,-6.69
2022-12-18T07:58:57.233Z,-6.55
2022-12-18T08:01:26.817Z,-6.53
2022-12-18T08:03:54.813Z,-6.48
2022-12-18T08:06:23.788Z,-6.48
2022-12-18T08:08:53.757Z,-6.42
2022-12-18T08:11:21.997Z,-6.42
2022-12-18T08:13:49.808Z,-6.36
2022-12-18T08:16:18.005Z,-6.36
2022-12-18T08:18:47.328Z,-6.29
2022-12-18T08:21:17.761Z,-6.25
2022-12-18T08:23:46.267Z,-6.21
2022-12-18T08:26:14.724Z,-6.13
2022-12-18T08:28:43.280Z,-6.03
2022-12-18T08:31:11.723Z,-5.94
2022-12-18T08:33:41.047Z,-5.88
2022-12-18T08:36:11.872Z,-5.83
2022-12-18T08:38:39.765Z,-5.78
2022-12-18T08:41:09.343Z,-5.71
2022-12-18T08:43:54.858Z,-5.67
2022-12-18T08:46:23.131Z,-5.61
2022-12-18T08:48:53.079Z,-5.61
2022-12-18T08:51:22.575Z,-5.53
2022-12-18T08:53:50.328Z,-5.42
2022-12-18T08:56:18.690Z,-5.38
2022-12-18T08:58:46.631Z,-5.31
2022-12-18T09:01:15.172Z,-5.23
2022-12-18T09:03:43.411Z,-5.11
2022-12-18T09:06:16.621Z,-5.05
2022-12-18T09:08:46.458Z,-4.93
2022-12-18T09:11:16.734Z,-4.93
2022-12-18T09:13:44.418Z,-4.83
2022-12-18T09:16:12.108Z,-4.78
2022-12-18T09:18:40.071Z,-4.74
2022-12-18T09:21:12.731Z,-4.75
2022-12-18T09:23:40.809Z,-4.71
2022-12-18T09:26:09.967Z,-4.69
2022-12-18T09:28:38.347Z,-4.61
2022-12-18T09:31:09.420Z,-4.62
2022-12-18T09:33:37.688Z,-4.53
2022-12-18T09:36:08.192Z,-4.44
2022-12-18T09:38:36.866Z,-4.25
2022-12-18T09:41:09.000Z,-4.18
2022-12-18T09:43:45.244Z,-4.04
2022-12-18T09:46:19.055Z,-4.00
2022-12-18T09:48:51.359Z,-3.91
2022-12-18T09:51:25.441Z,-3.82
2022-12-18T09:53:59.465Z,-3.70
2022-12-18T09:56:31.019Z,-3.59
2022-12-18T09:59:02.061Z,-3.53
2022-12-18T10:01:41.533Z,-3.42
2022-12-18T10:04:11.865Z,-3.34
2022-12-18T10:06:48.133Z,-3.24
2022-12-18T10:09:27.571Z,-3.19
2022-12-18T10:12:05.446Z,-3.14
2022-12-18T10:14:45.260Z,-3.01
2022-12-18T10:17:25.221Z,-3.03
2022-12-18T10:19:58.277Z,-3.03
2022-12-18T10:22:42.650Z,-2.93
2022-12-18T10:25:21.336Z,-2.79
2022-12-18T10:27:50.416Z,-2.73
2022-12-18T10:30:22.243Z,-2.73
2022-12-18T10:32:50.141Z,-2.71
2022-12-18T10:35:21.804Z,-2.65
2022-12-18T10:38:03.872Z,-2.53
2022-12-18T10:40:32.147Z,-2.50
2022-12-18T10:43:12.641Z,-2.47
2022-12-18T10:45:41.848Z,-2.35
2022-12-18T10:48:21.203Z,-2.15
2022-12-18T10:53:43.942Z,-2.28
2022-12-18T10:56:12.723Z,-2.23
2022-12-18T10:58:41.465Z,-2.15
2022-12-18T11:01:13.693Z,-2.26
2022-12-18T11:03:43.519Z,-2.29
2022-12-18T11:06:13.448Z,-2.32
2022-12-18T11:08:43.119Z,-2.30
2022-12-18T11:11:21.637Z,-2.38
2022-12-18T11:14:00.530Z,-2.25
2022-12-18T11:16:31.681Z,-2.28
2022-12-18T11:19:17.134Z,-2.25
2022-12-18T11:21:45.043Z,-2.30
2022-12-18T11:24:22.289Z,-2.24
2022-12-18T11:26:53.750Z,-2.38
2022-12-18T11:29:29.282Z,-2.34
2022-12-18T11:32:25.771Z,-2.37
2022-12-18T11:35:00.024Z,-2.30
2022-12-18T11:37:29.670Z,-2.39
2022-12-18T11:40:02.019Z,-2.39
2022-12-18T11:42:37.847Z,-2.52
2022-12-18T11:45:25.423Z,-2.44
2022-12-18T11:48:00.774Z,-2.49
2022-12-18T11:50:33.476Z,-2.48
2022-12-18T11:53:05.653Z,-2.50
2022-12-18T11:55:41.849Z,-2.51
2022-12-18T11:58:18.988Z,-2.49
2022-12-18T12:00:51.491Z,-2.57
2022-12-18T12:03:42.096Z,-2.58
2022-12-18T12:06:16.170Z,-2.61
2022-12-18T12:09:03.249Z,-2.58
2022-12-18T12:11:44.194Z,-2.58
2022-12-18T12:14:25.405Z,-2.68
2022-12-18T12:16:59.391Z,-2.57
2022-12-18T12:19:40.280Z,-2.59
2022-12-18T12:22:15.875Z,-2.64
2022-12-18T12:25:01.478Z,-2.57
2022-12-18T12:27:34.678Z,-2.54
2022-12-18T12:30:08.525Z,-2.55
2022-12-18T12:32:52.763Z,-2.58
2022-12-18T12:35:32.386Z,-2.57
2022-12-18T12:38:10.165Z,-2.53
2022-12-18T12:40:54.021Z,-2.56
2022-12-18T12:43:32.138Z,-2.47
2022-12-18T12:46:08.393Z,-2.46
2022-12-18T12:48:46.129Z,-2.46
2022-12-18T12:51:19.764Z,-2.46
2022-12-18T12:53:49.714Z,-2.46
2022-12-18T12:56:19.871Z,-2.41
2022-12-18T12:58:57.673Z,-2.46
2022-12-18T13:01:35.184Z,-2.45
2022-12-18T13:04:14.784Z,-2.46
2022-12-18T13:06:52.299Z,-2.39
2022-12-18T13:09:20.043Z,-2.38
2022-12-18T13:12:07.596Z,-2.34
2022-12-18T13:14:37.738Z,-2.33
2022-12-18T13:17:31.771Z,-2.29
2022-12-18T13:20:12.002Z,-2.30
2022-12-18T13:22:44.942Z,-2.24
2022-12-18T13:25:37.632Z,-2.23
2022-12-18T13:28:10.338Z,-2.22
2022-12-18T13:31:02.808Z,-2.22
2022-12-18T13:36:39.888Z,-2.17
2022-12-18T13:39:34.340Z,-2.13
2022-12-18T13:42:58.772Z,-2.20
2022-12-18T13:45:43.357Z,-2.13
2022-12-18T13:48:21.187Z,-2.18
2022-12-18T13:50:55.817Z,-2.23
2022-12-18T13:53:28.439Z,-2.24
2022-12-18T13:55:58.608Z,-2.28
2022-12-18T13:58:26.368Z,-2.27
2022-12-18T14:00:54.186Z,-2.25
2022-12-18T14:03:27.061Z,-2.22
2022-12-18T14:06:05.577Z,-2.21
2022-12-18T14:08:41.338Z,-2.25
2022-12-18T14:11:22.364Z,-2.32
2022-12-18T14:13:51.186Z,-2.32
2022-12-18T14:16:19.731Z,-2.37
2022-12-18T14:18:51.160Z,-2.38
2022-12-18T14:21:23.118Z,-2.47
2022-12-18T14:23:51.269Z,-2.47
2022-12-18T14:26:29.356Z,-2.50
2022-12-18T14:28:57.537Z,-2.57
2022-12-18T14:31:27.326Z,-2.64
2022-12-18T14:33:55.525Z,-2.61
2022-12-18T14:36:24.993Z,-2.61
2022-12-18T14:38:54.610Z,-2.58
2022-12-18T14:41:24.835Z,-2.67
2022-12-18T14:43:54.711Z,-2.68
2022-12-18T14:46:34.633Z,-2.70
2022-12-18T14:49:05.556Z,-2.73
2022-12-18T14:51:35.293Z,-2.75
2022-12-18T14:54:05.280Z,-2.76
2022-12-18T14:56:37.191Z,-2.81
2022-12-18T14:59:06.868Z,-2.83
2022-12-18T15:01:38.919Z,-2.82
2022-12-18T15:04:25.046Z,-2.88
2022-12-18T15:07:05.852Z,-2.90
2022-12-18T15:09:33.734Z,-2.90
2022-12-18T15:12:03.574Z,-2.93
2022-12-18T15:14:37.189Z,-2.95
2022-12-18T15:17:08.214Z,-2.98
2022-12-18T15:19:40.839Z,-3.01
2022-12-18T15:22:21.437Z,-2.99
2022-12-18T15:24:50.769Z,-3.02
2022-12-18T15:27:32.051Z,-3.02
2022-12-18T15:30:19.896Z,-3.05
2022-12-18T15:32:48.574Z,-3.05
2022-12-18T15:35:19.431Z,-3.07
2022-12-18T15:37:47.662Z,-3.05
2022-12-18T15:40:16.231Z,-3.09
2022-12-18T15:43:05.071Z,-3.08
2022-12-18T15:45:32.910Z,-3.02
2022-12-18T15:48:08.505Z,-3.06
2022-12-18T15:50:36.596Z,-3.08
2022-12-18T15:53:04.596Z,-3.04
2022-12-18T15:55:59.313Z,-3.07
2022-12-18T15:58:29.997Z,-3.04
2022-12-18T16:01:00.499Z,-3.02
2022-12-18T16:03:28.447Z,-3.03
2022-12-18T16:05:56.536Z,-3.00
2022-12-18T16:08:25.618Z,-3.04
2022-12-18T16:10:53.333Z,-3.05
2022-12-18T16:13:22.303Z,-3.05
2022-12-18T16:15:51.784Z,-3.04
2022-12-18T16:18:19.572Z,-3.06
2022-12-18T16:20:47.386Z,-3.05
2022-12-18T16:23:15.205Z,-3.03
2022-12-18T16:25:42.937Z,-3.02
2022-12-18T16:28:10.972Z,-3.03
2022-12-18T16:30:38.905Z,-3.05
2022-12-18T16:33:08.028Z,-3.06
2022-12-18T16:35:37.986Z,-3.05
2022-12-18T16:38:05.775Z,-3.05
2022-12-18T16:40:34.236Z,-3.02
2022-12-18T16:43:01.885Z,-3.02
2022-12-18T16:45:33.947Z,-3.03
2022-12-18T16:48:01.914Z,-3.03
2022-12-18T16:50:32.203Z,-2.99
2022-12-18T16:53:00.470Z,-3.01
2022-12-18T16:55:28.756Z,-3.01
2022-12-18T16:57:56.493Z,-2.98
2022-12-18T17:00:24.190Z,-2.97
2022-12-18T17:02:52.615Z,-2.99
2022-12-18T17:05:21.495Z,-3.01
2022-12-18T17:07:50.958Z,-3.01
2022-12-18T17:10:18.889Z,-3.01
2022-12-18T17:12:47.253Z,-2.98
2022-12-18T17:15:15.253Z,-3.01
2022-12-18T17:17:44.625Z,-3.02
2022-12-18T17:20:13.025Z,-3.04
2022-12-18T17:22:41.207Z,-3.08
2022-12-18T17:25:10.958Z,-3.06
2022-12-18T17:27:39.071Z,-3.06
2022-12-18T17:30:09.890Z,-3.09
2022-12-18T17:32:38.658Z,-3.07
2022-12-18T17:35:08.065Z,-3.11
2022-12-18T17:37:36.840Z,-3.10
2022-12-18T17:40:11.396Z,-3.12
2022-12-18T17:42:39.555Z,-3.14
2022-12-18T17:45:08.440Z,-3.15
2022-12-18T17:47:36.754Z,-3.16
2022-12-18T17:50:05.401Z,-3.15
2022-12-18T17:52:36.564Z,-3.14
2022-12-18T17:55:05.835Z,-3.14
2022-12-18T17:57:35.072Z,-3.14
2022-12-18T18:00:02.912Z,-3.13
2022-12-18T18:02:43.823Z,-3.14
2022-12-18T18:05:13.420Z,-3.12
2022-12-18T18:07:43.055Z,-3.12
2022-12-18T18:10:11.351Z,-3.13
2022-12-18T18:12:57.698Z,-3.13
2022-12-18T18:15:25.456Z,-3.12
2022-12-18T18:17:53.234Z,-3.11
2022-12-18T18:20:22.911Z,-3.11
2022-12-18T18:22:50.818Z,-3.10
2022-12-18T18:25:18.718Z,-3.08
2022-12-18T18:27:48.647Z,-3.07
2022-12-18T18:30:16.733Z,-3.05
2022-12-18T18:32:44.483Z,-3.02
2022-12-18T18:35:30.691Z,-3.02
2022-12-18T18:38:00.309Z,-3.01
2022-12-18T18:40:28.749Z,-3.02
2022-12-18T18:42:58.390Z,-2.98
2022-12-18T18:45:26.189Z,-2.98
2022-12-18T18:47:53.992Z,-2.96
2022-12-18T18:50:21.782Z,-2.96
2022-12-18T18:52:49.664Z,-2.94
2022-12-18T18:55:25.337Z,-2.92
2022-12-18T18:57:53.630Z,-2.90
2022-12-18T19:00:22.793Z,-2.91
2022-12-18T19:02:52.156Z,-2.90
2022-12-18T19:05:22.893Z,-2.91
2022-12-18T19:07:50.560Z,-2.92
2022-12-18T19:10:18.336Z,-2.91
2022-12-18T19:13:03.547Z,-2.90
2022-12-18T19:15:33.031Z,-2.88
2022-12-18T19:18:00.935Z,-2.89
2022-12-18T19:20:28.826Z,-2.90
2022-12-18T19:22:57.116Z,-2.87
2022-12-18T19:25:40.012Z,-2.87
2022-12-18T19:28:16.021Z,-2.87
2022-12-18T19:30:53.562Z,-2.87
2022-12-18T19:33:42.305Z,-2.86
2022-12-18T19:36:12.865Z,-2.84
2022-12-18T19:38:41.544Z,-2.81
2022-12-18T19:41:14.212Z,-2.81
2022-12-18T19:43:42.803Z,-2.79
2022-12-18T19:46:15.440Z,-2.80
2022-12-18T19:48:44.335Z,-2.77
2022-12-18T19:51:15.797Z,-2.76
2022-12-18T19:53:43.948Z,-2.72
2022-12-18T19:56:14.211Z,-2.68
2022-12-18T19:58:42.440Z,-2.64
2022-12-18T20:01:16.673Z,-2.61
2022-12-18T20:03:52.384Z,-2.62
2022-12-18T20:06:26.374Z,-2.60
2022-12-18T20:08:57.672Z,-2.57
2022-12-18T20:11:28.140Z,-2.60
2022-12-18T20:13:55.869Z,-2.59
2022-12-18T20:16:25.135Z,-2.57
2022-12-18T20:18:56.393Z,-2.57
2022-12-18T20:21:25.175Z,-2.53
2022-12-18T20:23:54.750Z,-2.53
2022-12-18T20:26:22.719Z,-2.55
2022-12-18T20:28:50.490Z,-2.53
2022-12-18T20:31:18.223Z,-2.57
2022-12-18T20:33:48.679Z,-2.59
2022-12-18T20:36:28.196Z,-2.61
2022-12-18T20:38:59.274Z,-2.61
2022-12-18T20:41:38.549Z,-2.60
2022-12-18T20:44:13.728Z,-2.58
2022-12-18T20:46:50.411Z,-2.57
2022-12-18T20:49:19.615Z,-2.59
2022-12-18T20:51:47.371Z,-2.54
2022-12-18T20:54:15.066Z,-2.57
2022-12-18T20:56:42.764Z,-2.54
2022-12-18T20:59:11.329Z,-2.49
2022-12-18T21:01:40.112Z,-2.51
2022-12-18T21:04:15.166Z,-2.48
2022-12-18T21:06:50.921Z,-2.45
2022-12-18T21:09:19.436Z,-2.42
2022-12-18T21:12:05.730Z,-2.40
2022-12-18T21:14:33.626Z,-2.38
2022-12-18T21:17:01.921Z,-2.33
2022-12-18T21:19:30.393Z,-2.33
2022-12-18T21:22:00.142Z,-2.30
2022-12-18T21:24:32.010Z,-2.32
2022-12-18T21:27:03.610Z,-2.31
2022-12-18T21:29:31.458Z,-2.28
2022-12-18T21:31:59.244Z,-2.25
2022-12-18T21:34:28.562Z,-2.25
2022-12-18T21:36:57.719Z,-2.21
2022-12-18T21:39:27.899Z,-2.20
2022-12-18T21:42:13.451Z,-2.17
2022-12-18T21:44:42.598Z,-2.22
2022-12-18T21:47:21.505Z,-2.21
2022-12-18T21:49:51.835Z,-2.16
2022-12-18T21:52:20.342Z,-2.15
2022-12-18T21:54:53.692Z,-2.13
2022-12-18T21:57:21.372Z,-2.15
2022-12-18T21:59:50.458Z,-2.15
2022-12-18T22:02:21.164Z,-2.12
2022-12-18T22:04:49.322Z,-2.11
2022-12-18T22:07:17.868Z,-2.10
2022-12-18T22:09:46.058Z,-2.10
2022-12-18T22:12:35.026Z,-2.06
2022-12-18T22:15:04.979Z,-2.07
2022-12-18T22:17:33.263Z,-2.09
2022-12-18T22:20:00.959Z,-2.06
2022-12-18T22:22:28.942Z,-2.08
2022-12-18T22:24:56.883Z,-2.06
2022-12-18T22:27:26.014Z,-2.02
2022-12-18T22:30:04.854Z,-2.02
2022-12-18T22:32:33.768Z,-2.00
2022-12-18T22:35:07.215Z,-1.99
2022-12-18T22:37:37.176Z,-1.97
2022-12-18T22:40:06.252Z,-1.94
2022-12-18T22:42:36.965Z,-1.93
2022-12-18T22:45:05.323Z,-1.89
2022-12-18T22:47:33.063Z,-1.89
2022-12-18T22:50:00.781Z,-1.90
2022-12-18T22:52:28.500Z,-1.87
2022-12-18T22:54:56.387Z,-1.84
2022-12-18T22:57:25.277Z,-1.82
2022-12-18T22:59:54.315Z,-1.80
2022-12-18T23:02:22.241Z,-1.78
2022-12-18T23:04:50.118Z,-1.78
2022-12-18T23:07:18.683Z,-1.79
2022-12-18T23:09:46.828Z,-1.76
2022-12-18T23:12:19.756Z,-1.73
2022-12-18T23:14:47.846Z,-1.73
2022-12-18T23:17:17.025Z,-1.72
2022-12-18T23:19:49.016Z,-1.73
2022-12-18T23:22:17.459Z,-1.67
2022-12-18T23:24:45.432Z,-1.65
2022-12-18T23:27:13.290Z,-1.65
2022-12-18T23:29:41.585Z,-1.59
2022-12-18T23:32:09.558Z,-1.58
2022-12-18T23:34:38.578Z,-1.53
2022-12-18T23:37:06.268Z,-1.50
2022-12-18T23:39:36.923Z,-1.49
2022-12-18T23:42:04.828Z,-1.46
2022-12-18T23:44:32.490Z,-1.43
2022-12-18T23:47:00.242Z,-1.40
2022-12-18T23:49:28.450Z,-1.37
2022-12-18T23:51:57.559Z,-1.37
2022-12-18T23:54:33.451Z,-1.32
2022-12-18T23:57:02.069Z,-1.30
2022-12-18T23:59:29.761Z,-1.28
